Time;durP1;ratioP1;P1;durP2;ratioP2;P2;SDS_P1;SDS_P2;PMS_P1;PMS_P2;Temp;Humidity;BMP_temperature;BMP_pressure;BME280_temperature;BME280_humidity;BME280_pressure;Samples;Min_cycle;Max_cycle;Signal;HPM_P1;HPM_P2
2024/02/13 00:01:29;;;;;;;15.05;8.48;;;;;;;-1.39;65.93;99514.53;5049407;28;20345;-63
2024/02/13 00:03:56;;;;;;;12.23;7.47;;;;;;;-1.22;65.02;99509.53;5048756;28;20028;-64
2024/02/13 00:06:22;;;;;;;11.68;8.13;;;;;;;-1.41;65.57;99511.97;5050135;28;20049;-65
2024/02/13 00:08:48;;;;;;;13.40;8.48;;;;;;;-1.36;65.55;99507.41;5049174;28;20029;-65
2024/02/13 00:11:14;;;;;;;12.25;7.18;;;;;;;-1.30;65.35;99504.56;5049435;28;20033;-65
2024/02/13 00:13:41;;;;;;;12.57;8.07;;;;;;;-1.33;65.54;99520.44;5049226;28;20056;-63
2024/02/13 00:16:07;;;;;;;10.27;7.20;;;;;;;-1.22;64.90;99517.41;5049914;28;20045;-65
2024/02/13 00:18:33;;;;;;;12.38;8.45;;;;;;;-1.54;65.37;99489.69;5050168;28;20452;-63
2024/02/13 00:20:59;;;;;;;14.82;8.82;;;;;;;-1.45;65.44;99499.84;5049183;28;20107;-63
2024/02/13 00:23:25;;;;;;;13.50;8.55;;;;;;;-1.55;65.93;99516.84;5049471;28;20069;-64
2024/02/13 00:25:51;;;;;;;11.80;8.02;;;;;;;-1.33;65.88;99516.94;5049664;28;20165;-66
2024/02/13 00:28:19;;;;;;;15.15;9.57;;;;;;;-1.54;65.85;99508.06;5048797;28;20427;-65
2024/02/13 00:30:45;;;;;;;15.50;9.32;;;;;;;-1.56;66.20;99529.16;5028282;28;20048;-65
2024/02/13 00:33:31;;;;;;;12.18;7.85;;;;;;;-1.51;66.33;99518.44;5029427;28;20106;-63
2024/02/13 00:36:17;;;;;;;17.08;9.40;;;;;;;-1.55;66.40;99498.47;5029270;28;20045;-65
2024/02/13 00:38:45;;;;;;;13.43;8.88;;;;;;;-1.51;66.22;99505.31;5045618;28;20353;-65
2024/02/13 00:41:10;;;;;;;16.75;9.98;;;;;;;-1.54;66.38;99511.56;5028994;28;20045;-66
2024/02/13 00:43:36;;;;;;;17.60;10.15;;;;;;;-1.49;66.23;99514.00;5043064;28;20029;-64
2024/02/13 00:46:01;;;;;;;15.75;10.18;;;;;;;-1.61;66.73;99526.66;5049590;28;20052;-65
2024/02/13 00:48:30;;;;;;;16.35;10.40;;;;;;;-1.59;67.48;99526.59;5050097;28;20116;-65
2024/02/13 00:50:56;;;;;;;14.95;10.05;;;;;;;-1.52;67.08;99550.88;5048889;28;20045;-64
2024/02/13 00:53:21;;;;;;;16.42;9.10;;;;;;;-1.49;64.82;99498.25;5048023;28;20172;-65
2024/02/13 00:55:49;;;;;;;13.65;8.75;;;;;;;-1.45;65.43;99550.59;5049474;27;20532;-64
2024/02/13 00:58:16;;;;;;;16.65;10.45;;;;;;;-1.57;65.90;99553.66;5049729;28;20108;-64
2024/02/13 01:00:42;;;;;;;14.82;9.32;;;;;;;-1.57;66.20;99551.03;5048903;28;20155;-65
2024/02/13 01:03:11;;;;;;;15.73;9.05;;;;;;;-1.40;65.33;99555.72;5048874;28;20033;-65
2024/02/13 01:05:40;;;;;;;16.08;9.80;;;;;;;-1.68;65.36;99546.19;5048337;28;20040;-63
2024/02/13 01:08:07;;;;;;;15.40;8.38;;;;;;;-1.52;64.88;99553.50;5049028;28;20057;-65
2024/02/13 01:10:34;;;;;;;16.95;10.13;;;;;;;-1.59;65.33;99565.97;5048607;28;20025;-66
2024/02/13 01:12:59;;;;;;;17.23;10.15;;;;;;;-1.89;64.27;99504.00;5047631;28;20459;-65
2024/02/13 01:15:26;;;;;;;17.48;10.13;;;;;;;-1.85;65.43;99572.13;5049535;28;20052;-65
2024/02/13 01:17:54;;;;;;;14.50;6.53;;;;;;;-1.82;65.10;99570.25;5052326;28;20029;-64
2024/02/13 01:20:21;;;;;;;17.77;9.40;;;;;;;-1.77;64.83;99563.09;5051000;28;20376;-64
2024/02/13 01:22:46;;;;;;;17.73;9.05;;;;;;;-1.73;64.90;99571.72;5052204;28;20029;-65
2024/02/13 01:25:14;;;;;;;18.35;10.20;;;;;;;-1.85;64.83;99570.34;5052230;28;20032;-63
2024/02/13 01:27:40;;;;;;;17.88;10.60;;;;;;;-1.95;64.76;99561.94;5051243;28;20452;-66
2024/02/13 01:30:09;;;;;;;21.55;10.43;;;;;;;-1.82;64.82;99574.66;5052196;28;20037;-64
2024/02/13 01:32:40;;;;;;;18.58;10.27;;;;;;;-1.83;64.39;99578.19;5052347;28;20437;-64
2024/02/13 01:35:07;;;;;;;20.10;11.23;;;;;;;-1.94;64.71;99586.41;5052091;28;20044;-66
2024/02/13 01:37:34;;;;;;;22.15;10.82;;;;;;;-2.11;64.86;99573.84;5052396;28;20113;-66
2024/02/13 01:40:01;;;;;;;20.45;11.43;;;;;;;-2.09;64.40;99588.63;5052235;28;20421;-65
2024/02/13 01:42:30;;;;;;;17.17;9.38;;;;;;;-2.30;65.09;99579.69;5051939;28;20037;-66
2024/02/13 01:44:56;;;;;;;22.25;11.95;;;;;;;-2.39;65.13;99574.75;5051926;28;20467;-65
2024/02/13 01:47:22;;;;;;;20.40;11.02;;;;;;;-2.46;64.29;99556.56;5052512;28;20032;-59
2024/02/13 01:49:48;;;;;;;17.20;8.20;;;;;;;-1.96;62.87;99596.09;5051550;28;20036;-62
2024/02/13 01:52:17;;;;;;;19.73;9.60;;;;;;;-2.11;63.36;99607.97;5051483;28;20053;-63
2024/02/13 01:54:45;;;;;;;22.98;11.55;;;;;;;-2.51;63.68;99587.31;5051586;28;20426;-63
2024/02/13 01:57:11;;;;;;;21.17;11.57;;;;;;;-2.55;64.05;99595.31;5050840;27;20036;-64
2024/02/13 01:59:38;;;;;;;18.52;8.95;;;;;;;-2.35;63.61;99613.06;5051088;28;20036;-63
2024/02/13 02:02:08;;;;;;;21.63;11.73;;;;;;;-2.50;64.45;99623.09;5050703;28;20090;-59
2024/02/13 02:04:37;;;;;;;24.05;12.15;;;;;;;-2.79;64.57;99598.63;5032210;28;20042;-58
2024/02/13 02:07:08;;;;;;;23.73;11.65;;;;;;;-2.44;63.50;99614.19;5030727;28;20086;-64
2024/02/13 02:09:33;;;;;;;21.77;11.85;;;;;;;-2.65;64.62;99619.19;5031869;28;20049;-65
2024/02/13 02:11:59;;;;;;;20.63;10.88;;;;;;;-2.89;63.84;99557.88;5031965;28;20025;-65
2024/02/13 02:14:27;;;;;;;22.60;12.73;;;;;;;-2.66;64.39;99627.06;5050722;28;20065;-64
2024/02/13 02:17:08;;;;;;;23.75;12.50;;;;;;;-2.87;64.52;99569.19;5051586;28;20029;-65
2024/02/13 02:19:34;;;;;;;23.77;12.43;;;;;;;-2.67;64.63;99627.97;5051501;28;20037;-64
2024/02/13 02:22:00;;;;;;;17.33;8.55;;;;;;;-2.83;63.97;99597.00;5052080;28;20037;-65
2024/02/13 02:24:26;;;;;;;19.73;9.98;;;;;;;-2.38;63.41;99649.88;5050751;28;20037;-64
2024/02/13 02:27:12;;;;;;;23.10;11.23;;;;;;;-2.84;63.57;99616.25;5049704;28;20040;-64
2024/02/13 02:29:48;;;;;;;21.75;12.15;;;;;;;-2.74;63.55;99658.78;5051020;28;20338;-62
2024/02/13 02:32:14;;;;;;;19.98;8.93;;;;;;;-2.50;63.18;99664.22;5051562;28;20029;-64
2024/02/13 02:34:39;;;;;;;19.85;11.20;;;;;;;-2.88;63.85;99665.25;5051578;28;20033;-63
2024/02/13 02:37:06;;;;;;;23.25;12.07;;;;;;;-2.95;64.69;99673.31;5051534;28;20060;-65
2024/02/13 02:39:32;;;;;;;24.00;12.65;;;;;;;-2.92;64.46;99691.56;5051038;28;20035;-65
2024/02/13 02:41:58;;;;;;;24.23;12.52;;;;;;;-2.98;64.26;99669.03;5051625;28;20093;-65
2024/02/13 02:44:24;;;;;;;23.65;12.20;;;;;;;-2.85;64.13;99677.41;5051371;28;20029;-65
2024/02/13 02:46:49;;;;;;;20.50;10.40;;;;;;;-2.85;64.31;99676.53;5050903;28;20076;-66
2024/02/13 02:49:17;;;;;;;26.67;12.90;;;;;;;-2.91;64.76;99682.81;5050853;28;20040;-64
2024/02/13 02:51:43;;;;;;;23.77;11.30;;;;;;;-2.83;64.23;99680.84;5051055;28;20061;-65
2024/02/13 02:54:09;;;;;;;24.83;13.32;;;;;;;-2.80;63.91;99672.91;5050369;28;20033;-64
2024/02/13 02:56:37;;;;;;;19.27;8.35;;;;;;;-2.60;62.96;99679.34;5051003;28;20028;-65
2024/02/13 02:59:03;;;;;;;24.95;12.10;;;;;;;-3.26;64.32;99627.00;5050673;27;20032;-65
2024/02/13 03:01:30;;;;;;;24.02;11.23;;;;;;;-2.93;63.56;99656.66;5051282;28;20090;-65
2024/02/13 03:03:57;;;;;;;19.25;9.10;;;;;;;-2.81;63.56;99678.16;5050877;28;20032;-65
2024/02/13 03:06:23;;;;;;;26.73;12.23;;;;;;;-2.75;64.21;99683.25;5049604;28;20036;-64
2024/02/13 03:08:49;;;;;;;23.80;13.30;;;;;;;-2.91;63.91;99677.56;5050582;28;20037;-64
2024/02/13 03:11:15;;;;;;;22.73;12.27;;;;;;;-2.93;64.28;99679.38;5050518;28;20187;-64
2024/02/13 03:13:41;;;;;;;24.95;13.07;;;;;;;-2.96;64.20;99682.06;5050293;28;20033;-64
2024/02/13 03:16:07;;;;;;;27.55;14.32;;;;;;;-3.08;65.61;99686.75;5050733;28;20029;-65
2024/02/13 03:18:34;;;;;;;25.10;13.25;;;;;;;-3.14;65.84;99675.56;5050101;28;20429;-66
2024/02/13 03:20:59;;;;;;;27.00;13.55;;;;;;;-3.15;64.63;99638.03;5050579;28;20047;-66
2024/02/13 03:23:25;;;;;;;26.65;13.35;;;;;;;-2.76;64.22;99687.63;5049048;28;20021;-66
2024/02/13 03:25:50;;;;;;;28.00;14.75;;;;;;;-2.98;64.54;99689.13;5050039;28;20052;-66
2024/02/13 03:28:36;;;;;;;22.77;11.07;;;;;;;-2.81;63.36;99702.63;5050686;28;20033;-66
2024/02/13 03:31:02;;;;;;;18.55;7.32;;;;;;;-2.48;62.45;99699.94;5049790;28;20036;-65
2024/02/13 03:33:28;;;;;;;23.95;12.35;;;;;;;-2.89;62.83;99702.00;5050159;28;20025;-66
2024/02/13 03:35:53;;;;;;;25.77;13.40;;;;;;;-3.09;63.37;99690.28;5050243;28;20466;-67
2024/02/13 03:38:19;;;;;;;26.00;12.50;;;;;;;-3.13;63.56;99700.88;5049585;28;20033;-66
2024/02/13 03:40:45;;;;;;;24.50;13.00;;;;;;;-2.91;63.11;99709.00;5049533;28;20033;-67
2024/02/13 03:43:11;;;;;;;21.40;10.35;;;;;;;-2.87;62.72;99718.53;5050279;28;20429;-64
2024/02/13 03:45:37;;;;;;;18.98;7.25;;;;;;;-2.93;63.49;99697.72;5050279;28;20116;-66
2024/02/13 03:48:20;;;;;;;21.48;10.35;;;;;;;-3.00;63.24;99693.53;5049800;28;20048;-66
2024/02/13 03:50:45;;;;;;;20.85;10.48;;;;;;;-3.09;63.29;99682.41;5050189;28;20460;-66
2024/02/13 03:53:13;;;;;;;21.00;11.98;;;;;;;-3.16;64.24;99714.88;5049081;28;20057;-67
2024/02/13 03:55:39;;;;;;;27.35;13.05;;;;;;;-3.24;64.72;99728.19;5049540;28;20032;-65
2024/02/13 03:58:05;;;;;;;21.60;10.82;;;;;;;-2.97;63.77;99714.41;5049897;28;20021;-66
2024/02/13 04:00:34;;;;;;;25.77;13.75;;;;;;;-3.14;64.14;99712.25;5050012;27;20043;-67
2024/02/13 04:03:00;;;;;;;21.58;10.25;;;;;;;-2.89;63.58;99725.56;5049873;28;20437;-64
2024/02/13 04:05:26;;;;;;;25.70;12.38;;;;;;;-2.93;63.37;99722.16;5048636;28;20452;-65
2024/02/13 04:07:53;;;;;;;26.38;12.10;;;;;;;-3.20;63.71;99716.75;5050287;28;20032;-64
2024/02/13 04:10:19;;;;;;;25.83;12.90;;;;;;;-3.05;63.90;99727.69;5049904;28;20075;-65
2024/02/13 04:13:00;;;;;;;18.13;9.00;;;;;;;-2.95;63.14;99738.81;5048891;28;20033;-61
2024/02/13 04:15:26;;;;;;;15.55;8.07;;;;;;;-2.89;63.31;99746.53;5049658;28;20085;-64
2024/02/13 04:18:07;;;;;;;24.42;11.75;;;;;;;-2.89;62.95;99752.59;5049633;28;20363;-66
2024/02/13 04:20:33;;;;;;;17.95;8.85;;;;;;;-3.20;62.69;99697.53;5049919;28;20361;-66
2024/02/13 04:22:59;;;;;;;25.52;12.65;;;;;;;-3.08;63.20;99754.84;5049209;28;20027;-65
2024/02/13 04:25:24;;;;;;;25.80;12.45;;;;;;;-3.32;64.34;99746.72;5049671;28;20094;-65
2024/02/13 04:27:50;;;;;;;27.73;14.10;;;;;;;-3.38;64.45;99751.25;5049917;28;20086;-66
2024/02/13 04:30:15;;;;;;;24.02;11.90;;;;;;;-3.12;64.45;99762.81;5049514;28;20441;-65
2024/02/13 04:32:41;;;;;;;24.50;11.40;;;;;;;-2.97;64.09;99762.44;5048869;28;20040;-64
2024/02/13 04:35:08;;;;;;;29.52;13.70;;;;;;;-3.30;64.72;99761.53;5049577;28;20029;-66
2024/02/13 04:37:34;;;;;;;30.38;13.77;;;;;;;-3.71;65.16;99710.13;5049256;28;20072;-65
2024/02/13 04:39:59;;;;;;;27.10;12.85;;;;;;;-3.08;64.54;99782.78;5048599;28;20480;-65
2024/02/13 04:42:37;;;;;;;25.00;11.88;;;;;;;-3.10;64.02;99764.50;5048157;28;20456;-67
2024/02/13 04:45:04;;;;;;;25.02;11.57;;;;;;;-3.14;64.41;99775.94;5049345;28;20349;-64
2024/02/13 04:47:34;;;;;;;20.83;11.52;;;;;;;-3.22;64.88;99784.00;5048476;28;20037;-67
2024/02/13 04:50:03;;;;;;;28.73;13.80;;;;;;;-3.30;64.93;99792.94;5048271;28;20029;-66
2024/02/13 04:52:32;;;;;;;27.92;14.10;;;;;;;-3.44;66.14;99791.50;5028743;28;20045;-65
2024/02/13 04:54:58;;;;;;;25.60;11.43;;;;;;;-3.33;65.27;99797.38;5029220;28;20037;-67
2024/02/13 04:57:27;;;;;;;25.95;14.38;;;;;;;-3.34;65.13;99795.66;5042660;28;20029;-67
2024/02/13 04:59:56;;;;;;;28.20;13.55;;;;;;;-3.08;64.08;99804.63;5048309;28;20037;-65
2024/02/13 05:02:24;;;;;;;22.52;10.05;;;;;;;-2.97;63.51;99816.56;5047337;27;20119;-66
2024/02/13 05:07:36;;;;;;;26.08;11.95;;;;;;;-3.19;63.77;99828.44;5048129;28;20480;-65
2024/02/13 05:10:02;;;;;;;25.45;12.95;;;;;;;-3.35;64.45;99825.34;5048673;28;20105;-68
2024/02/13 05:12:31;;;;;;;25.95;13.32;;;;;;;-3.56;65.43;99826.69;5048851;28;20037;-73
2024/02/13 05:14:59;;;;;;;22.73;10.20;;;;;;;-3.14;63.74;99837.94;5049027;28;20360;-75
2024/02/13 05:17:26;;;;;;;30.27;13.73;;;;;;;-3.46;64.82;99827.34;5048004;28;20029;-74
2024/02/13 05:19:53;;;;;;;28.15;13.73;;;;;;;-3.43;65.16;99842.97;5048525;28;20155;-71
2024/02/13 05:22:19;;;;;;;18.63;8.80;;;;;;;-3.08;63.62;99859.63;5065296;28;20038;-64
2024/02/13 05:24:46;;;;;;;27.35;13.02;;;;;;;-3.21;63.80;99848.59;5131641;28;20367;-58
2024/02/13 05:27:13;;;;;;;29.63;13.98;;;;;;;-3.42;65.07;99857.78;5126674;27;20043;-63
2024/02/13 05:29:41;;;;;;;29.50;14.10;;;;;;;-3.26;64.24;99862.66;5133168;27;20035;-61
2024/02/13 05:32:07;;;;;;;30.40;13.82;;;;;;;-3.33;64.43;99860.19;5132297;27;20340;-65
2024/02/13 05:34:34;;;;;;;33.20;14.90;;;;;;;-3.45;65.12;99852.59;5132871;27;20028;-64
2024/02/13 05:37:01;;;;;;;20.98;9.55;;;;;;;-2.99;63.17;99863.78;5126667;27;20023;-65
2024/02/13 05:39:30;;;;;;;27.85;14.18;;;;;;;-3.34;63.91;99813.97;5132992;27;20031;-63
2024/02/13 05:41:56;;;;;;;26.95;13.88;;;;;;;-3.14;63.07;99865.00;5132289;27;20038;-64
2024/02/13 05:44:24;;;;;;;25.95;12.38;;;;;;;-3.05;63.44;99869.16;5133004;27;20458;-64
2024/02/13 05:46:55;;;;;;;28.42;13.90;;;;;;;-3.55;64.87;99822.31;5132333;27;20027;-70
2024/02/13 05:49:21;;;;;;;30.08;14.15;;;;;;;-3.23;64.20;99870.44;5100640;28;20461;-65
2024/02/13 05:51:48;;;;;;;28.77;13.43;;;;;;;-3.30;65.16;99882.81;5048219;28;20056;-54
2024/02/13 05:54:15;;;;;;;27.98;15.20;;;;;;;-3.24;65.04;99879.22;5049088;28;20124;-63
2024/02/13 05:56:41;;;;;;;31.00;14.30;;;;;;;-3.22;64.64;99878.28;5101594;28;20158;-64
2024/02/13 05:59:08;;;;;;;29.88;14.88;;;;;;;-3.16;65.05;99898.22;5120554;27;20029;-62
2024/02/13 06:01:34;;;;;;;38.50;15.90;;;;;;;-3.12;64.39;99883.28;5126172;27;20099;-63
2024/02/13 06:04:05;;;;;;;32.65;16.17;;;;;;;-3.13;64.80;99913.88;5106290;27;20021;-65
2024/02/13 06:06:42;;;;;;;28.05;14.60;;;;;;;-3.03;63.96;99896.16;5043142;28;20025;-61
2024/02/13 06:09:09;;;;;;;35.00;16.55;;;;;;;-3.03;64.23;99924.97;5051602;28;20041;-63
2024/02/13 06:11:36;;;;;;;30.55;14.93;;;;;;;-2.92;64.65;99927.34;5051655;28;20388;-64
2024/02/13 06:14:02;;;;;;;29.42;14.75;;;;;;;-2.91;64.65;99929.06;5051946;28;20041;-63
2024/02/13 06:16:28;;;;;;;31.77;16.35;;;;;;;-2.84;63.57;99935.91;5051450;28;20051;-64
2024/02/13 06:18:53;;;;;;;26.17;12.02;;;;;;;-2.74;62.74;99949.66;5050039;28;20033;-64
2024/02/13 06:21:19;;;;;;;32.33;14.88;;;;;;;-2.80;63.59;99947.16;5050189;28;20083;-62
2024/02/13 06:23:47;;;;;;;29.23;14.30;;;;;;;-2.69;62.71;99949.53;5051952;28;20441;-63
2024/02/13 06:26:13;;;;;;;25.27;11.07;;;;;;;-2.60;62.19;99950.19;5051046;28;20033;-64
2024/02/13 06:28:40;;;;;;;30.80;16.58;;;;;;;-2.99;63.28;99965.06;5050076;28;20140;-63
2024/02/13 06:31:06;;;;;;;31.00;16.00;;;;;;;-3.07;64.24;99965.25;5050373;28;20101;-63
2024/02/13 06:33:32;;;;;;;32.63;16.02;;;;;;;-3.00;64.23;99968.59;5051774;28;20041;-63
2024/02/13 06:35:58;;;;;;;28.42;15.10;;;;;;;-2.90;63.30;99968.34;5051225;28;20041;-63
2024/02/13 06:38:34;;;;;;;34.03;15.95;;;;;;;-2.87;64.05;99983.16;5050984;28;20037;-64
2024/02/13 06:41:05;;;;;;;25.88;12.98;;;;;;;-2.68;62.91;99983.59;5050833;28;20044;-64
2024/02/13 06:43:34;;;;;;;31.13;14.65;;;;;;;-2.63;62.77;99981.72;5051654;28;20021;-65
2024/02/13 06:46:03;;;;;;;19.60;10.35;;;;;;;-2.44;62.16;99981.28;5050940;28;20039;-64
2024/02/13 06:48:30;;;;;;;24.40;12.85;;;;;;;-2.57;61.21;99975.47;5050716;28;20487;-64
2024/02/13 06:50:57;;;;;;;33.97;16.13;;;;;;;-2.61;62.12;99985.16;5050351;28;20052;-64
2024/02/13 06:53:23;;;;;;;28.77;13.18;;;;;;;-2.64;62.16;99989.63;5050671;28;20037;-62
2024/02/13 06:55:49;;;;;;;26.00;12.10;;;;;;;-2.47;61.56;99994.47;5051078;28;20556;-63
2024/02/13 06:58:17;;;;;;;31.27;16.05;;;;;;;-2.54;61.62;99996.38;5051111;28;20521;-62
2024/02/13 07:00:44;;;;;;;30.88;15.95;;;;;;;-2.77;61.95;99995.13;5050166;28;20033;-63
2024/02/13 07:03:10;;;;;;;24.13;13.50;;;;;;;-2.76;62.15;100002.09;5050697;27;20047;-63
2024/02/13 07:05:39;;;;;;;26.80;12.60;;;;;;;-2.62;61.59;100021.91;5050750;28;20032;-64
2024/02/13 07:08:05;;;;;;;28.77;15.13;;;;;;;-2.69;62.13;100007.19;5050243;28;20040;-64
2024/02/13 07:10:31;;;;;;;27.05;13.40;;;;;;;-2.68;61.42;100009.78;5050605;28;20037;-63
2024/02/13 07:13:17;;;;;;;23.63;11.63;;;;;;;-2.56;61.04;100002.53;5049993;28;20070;-63
2024/02/13 07:15:43;;;;;;;26.25;12.90;;;;;;;-2.75;61.94;100008.22;5050093;28;20033;-63
2024/02/13 07:18:09;;;;;;;21.60;9.88;;;;;;;-2.55;60.89;99999.88;5050677;28;20135;-64
2024/02/13 07:20:35;;;;;;;22.85;10.88;;;;;;;-2.60;60.80;100001.75;5049908;28;20123;-65
2024/02/13 07:23:04;;;;;;;27.38;14.65;;;;;;;-2.69;60.97;100029.03;5049009;28;20036;-64
2024/02/13 07:25:30;;;;;;;22.60;11.13;;;;;;;-2.76;61.46;100017.81;5050820;28;20024;-64
2024/02/13 07:27:59;;;;;;;25.73;13.57;;;;;;;-2.96;60.98;99978.09;5050155;28;20036;-65
2024/02/13 07:30:25;;;;;;;23.83;13.13;;;;;;;-2.55;60.78;100020.84;5050151;28;20517;-64
2024/02/13 07:32:51;;;;;;;22.58;10.63;;;;;;;-2.47;60.85;100018.91;5050858;28;20036;-63
2024/02/13 07:35:17;;;;;;;27.48;15.27;;;;;;;-2.39;60.21;100023.97;5048650;28;20063;-65
2024/02/13 07:37:58;;;;;;;27.48;12.50;;;;;;;-2.18;58.84;100014.69;5050052;28;20452;-63
2024/02/13 07:40:24;;;;;;;27.42;14.60;;;;;;;-2.17;59.00;100032.19;5055867;27;20517;-61
2024/02/13 07:42:49;;;;;;;22.13;11.93;;;;;;;-1.82;58.39;100041.81;5050586;28;20025;-61
2024/02/13 07:45:15;;;;;;;22.27;10.32;;;;;;;-1.55;56.44;100034.13;5049965;28;20029;-64
2024/02/13 07:48:02;;;;;;;24.35;13.48;;;;;;;-1.71;57.25;100033.66;5049358;28;20066;-63
2024/02/13 07:50:28;;;;;;;26.00;13.90;;;;;;;-1.83;56.84;99983.19;5050237;28;20063;-62
2024/02/13 07:52:54;;;;;;;27.98;13.55;;;;;;;-1.41;56.59;100039.88;5049880;28;20084;-61
2024/02/13 07:55:20;;;;;;;26.85;14.82;;;;;;;-1.26;56.98;100043.81;5054418;27;20072;-64
2024/02/13 07:57:50;;;;;;;27.55;15.20;;;;;;;-1.10;56.72;100044.25;5050231;28;20029;-63
2024/02/13 08:00:17;;;;;;;31.45;16.00;;;;;;;-0.98;56.30;100050.91;5055266;27;20368;-63
2024/02/13 08:02:43;;;;;;;21.48;11.10;;;;;;;-0.65;55.32;100036.81;5079532;27;20031;-62
2024/02/13 08:05:09;;;;;;;27.30;15.45;;;;;;;-1.13;56.11;100046.97;5065818;27;20033;-62
2024/02/13 08:07:35;;;;;;;29.65;15.68;;;;;;;-1.26;56.46;100050.81;5043806;28;20051;-60
2024/02/13 08:10:01;;;;;;;30.77;15.93;;;;;;;-1.63;57.26;100022.06;5044227;28;20037;-62
2024/02/13 08:12:30;;;;;;;26.25;11.43;;;;;;;-1.38;56.92;100041.53;5048938;28;20460;-60
2024/02/13 08:14:57;;;;;;;30.35;15.18;;;;;;;-1.67;56.73;100043.19;5047974;28;20029;-62
2024/02/13 08:17:23;;;;;;;21.25;11.25;;;;;;;-1.64;56.67;100067.59;5050019;28;20107;-62
2024/02/13 08:19:49;;;;;;;27.33;14.15;;;;;;;-1.47;56.54;100069.78;5044610;27;20035;-62
2024/02/13 08:22:18;;;;;;;23.30;13.18;;;;;;;-1.09;54.47;100066.09;5029193;28;20373;-63
2024/02/13 08:24:43;;;;;;;26.13;13.32;;;;;;;-0.82;54.27;100056.56;5028712;28;20037;-63
2024/02/13 08:27:09;;;;;;;26.67;11.63;;;;;;;-0.35;53.16;100065.66;5032334;28;20033;-59
2024/02/13 08:29:35;;;;;;;18.00;9.93;;;;;;;-0.36;52.56;100045.53;5038235;28;20515;-61
2024/02/13 08:32:03;;;;;;;26.38;13.95;;;;;;;-0.56;53.01;100048.81;5037563;28;20158;-63
2024/02/13 08:34:30;;;;;;;27.60;14.30;;;;;;;-0.50;54.28;100051.25;5040644;27;20033;-62
2024/02/13 08:36:55;;;;;;;26.10;14.93;;;;;;;-0.29;54.22;100047.06;5039009;28;20082;-62
2024/02/13 08:39:21;;;;;;;30.50;15.20;;;;;;;-0.23;53.93;100053.91;5038839;28;20029;-62
2024/02/13 08:41:47;;;;;;;29.25;16.60;;;;;;;-0.36;54.45;100062.19;5037410;28;20029;-61
2024/02/13 08:44:13;;;;;;;33.58;17.88;;;;;;;-0.71;55.40;100052.78;5030668;28;20022;-52
2024/02/13 08:46:38;;;;;;;30.75;15.20;;;;;;;-0.43;54.65;100058.03;5028988;28;20037;-51
2024/02/13 08:49:04;;;;;;;32.13;17.23;;;;;;;-0.47;54.59;100065.16;5028952;28;20161;-54
2024/02/13 08:51:30;;;;;;;31.35;17.13;;;;;;;-0.57;54.62;100039.19;5049031;28;20112;-63
2024/02/13 08:53:56;;;;;;;32.80;15.50;;;;;;;-0.23;54.70;100054.78;5043472;28;20040;-65
2024/02/13 08:56:22;;;;;;;27.70;14.05;;;;;;;-0.13;53.48;100067.63;5029746;28;20037;-64
2024/02/13 08:58:52;;;;;;;26.83;14.98;;;;;;;-0.62;53.87;100069.09;5044536;28;20033;-65
2024/02/13 09:01:21;;;;;;;19.58;9.55;;;;;;;-0.46;53.88;100074.78;5047359;27;20047;-63
2024/02/13 09:03:48;;;;;;;27.85;15.73;;;;;;;-1.16;55.89;100068.06;5046783;27;20025;-65
2024/02/13 09:06:16;;;;;;;26.70;14.98;;;;;;;-1.28;56.10;100064.03;5031544;28;20040;-62
2024/02/13 09:08:43;;;;;;;29.00;15.77;;;;;;;-0.99;56.44;100077.22;5026942;28;20337;-63
2024/02/13 09:11:14;;;;;;;35.03;17.45;;;;;;;-0.76;56.13;100072.16;5030155;28;20040;-63
2024/02/13 09:13:40;;;;;;;36.22;18.02;;;;;;;-0.82;55.77;100061.81;5065460;28;20025;-62
2024/02/13 09:16:08;;;;;;;35.15;18.00;;;;;;;-0.67;55.84;100085.94;5037356;27;20425;-63
2024/02/13 09:18:34;;;;;;;30.02;15.70;;;;;;;-0.83;54.89;100054.84;5040586;28;20039;-64
2024/02/13 09:21:00;;;;;;;30.60;16.02;;;;;;;-0.56;54.26;100096.16;5046153;27;20033;-64
2024/02/13 09:23:30;;;;;;;27.05;14.55;;;;;;;-0.87;54.78;100096.13;5046473;27;20044;-63
2024/02/13 09:25:56;;;;;;;29.15;14.90;;;;;;;-0.86;54.86;100104.88;5047879;28;20061;-61
2024/02/13 09:28:22;;;;;;;30.02;15.52;;;;;;;-0.68;54.42;100095.59;5048196;28;20448;-64
2024/02/13 09:30:50;;;;;;;28.83;16.00;;;;;;;-0.73;54.45;100094.88;5047775;28;20041;-64
2024/02/13 09:33:17;;;;;;;27.85;16.02;;;;;;;-0.76;55.20;100094.97;5044979;28;20045;-64
2024/02/13 09:35:44;;;;;;;34.65;16.90;;;;;;;-1.05;55.42;100052.00;5027581;28;20033;-63
2024/02/13 09:38:09;;;;;;;30.13;17.08;;;;;;;-0.89;56.35;100103.19;5041500;28;20045;-62
2024/02/13 09:40:36;;;;;;;38.00;17.50;;;;;;;-0.95;57.01;100108.63;5051087;28;20460;-65
2024/02/13 09:43:01;;;;;;;30.52;16.65;;;;;;;-0.91;56.74;100112.91;5050436;28;20095;-66
2024/02/13 09:45:29;;;;;;;34.83;16.65;;;;;;;-0.66;54.90;100121.84;5098548;27;20031;-67
2024/02/13 09:48:06;;;;;;;28.08;15.32;;;;;;;-0.95;55.90;100123.56;5126533;27;20028;-66
2024/02/13 09:50:38;;;;;;;28.85;16.02;;;;;;;-1.17;55.87;100116.28;5043377;28;20076;-65
2024/02/13 09:53:14;;;;;;;31.35;16.20;;;;;;;-1.16;56.42;100133.75;5031417;28;20045;-67
2024/02/13 09:55:40;;;;;;;31.23;14.95;;;;;;;-0.88;55.31;100125.09;5039860;28;20029;-66
2024/02/13 09:58:06;;;;;;;28.52;15.13;;;;;;;-1.10;55.97;100143.22;5050671;28;20040;-66
2024/02/13 10:00:32;;;;;;;29.27;16.02;;;;;;;-1.18;56.23;100135.56;5104254;27;20039;-65
2024/02/13 10:03:02;;;;;;;26.90;13.45;;;;;;;-1.19;56.28;100136.47;5050863;28;20419;-60
2024/02/13 10:05:27;;;;;;;30.35;15.52;;;;;;;-1.36;56.83;100135.16;5045961;27;20041;-65
2024/02/13 10:07:53;;;;;;;32.50;17.02;;;;;;;-1.68;58.11;100134.22;5037099;27;20033;-66
2024/02/13 10:10:19;;;;;;;25.05;13.23;;;;;;;-1.56;57.29;100132.19;5051317;28;20044;-64
2024/02/13 10:12:52;;;;;;;30.40;16.30;;;;;;;-1.59;57.47;100135.72;5051119;28;20128;-65
2024/02/13 10:15:18;;;;;;;28.08;14.60;;;;;;;-1.64;56.38;100103.47;5050969;28;20028;-65
2024/02/13 10:17:47;;;;;;;28.25;14.90;;;;;;;-1.57;56.59;100139.16;5050212;28;20025;-65
2024/02/13 10:20:17;;;;;;;22.60;12.05;;;;;;;-1.30;55.34;100156.00;5029593;28;20033;-62
2024/02/13 10:22:46;;;;;;;26.92;12.93;;;;;;;-1.35;55.71;100152.63;5042823;28;20052;-62
2024/02/13 10:25:12;;;;;;;17.98;8.65;;;;;;;-1.39;55.41;100144.88;5048965;28;20264;-62
2024/02/13 10:27:39;;;;;;;29.42;15.70;;;;;;;-1.57;56.34;100161.97;5048608;28;20052;-61
2024/02/13 10:30:06;;;;;;;27.30;15.10;;;;;;;-1.50;57.20;100160.91;5048565;28;20025;-65
2024/02/13 10:32:38;;;;;;;27.95;15.15;;;;;;;-1.36;57.30;100158.78;5029324;28;20460;-65
2024/02/13 10:35:08;;;;;;;34.17;17.20;;;;;;;-1.14;56.37;100159.97;5053149;28;20344;-65
2024/02/13 10:37:35;;;;;;;29.02;16.42;;;;;;;-1.25;56.86;100173.41;5051941;27;20056;-52
2024/02/13 10:40:04;;;;;;;30.55;12.93;;;;;;;-1.11;56.36;100168.66;5050099;28;20409;-64
2024/02/13 10:42:37;;;;;;;30.55;16.23;;;;;;;-1.23;56.49;100184.72;5050922;28;20044;-65
2024/02/13 10:45:06;;;;;;;32.00;16.83;;;;;;;-1.39;57.18;100176.38;5050276;28;20437;-65
2024/02/13 10:47:40;;;;;;;42.83;17.48;;;;;;;-1.66;57.68;100163.94;5090118;27;20034;-64
2024/02/13 10:50:07;;;;;;;36.17;17.02;;;;;;;-1.60;58.56;100182.16;5132860;27;20019;-65
2024/02/13 10:52:35;;;;;;;34.55;18.02;;;;;;;-1.46;58.24;100179.16;5046183;27;20373;-64
2024/02/13 10:55:10;;;;;;;38.03;18.00;;;;;;;-1.34;57.40;100185.00;5049104;28;20033;-64
2024/02/13 10:57:37;;;;;;;;;;;;;;;-0.95;57.01;100182.22;5049266;28;20035;-66
2024/02/13 11:00:14;;;;;;;34.90;15.85;;;;;;;-1.13;56.88;100185.34;5049944;28;19913;-65
2024/02/13 11:02:43;;;;;;;38.72;17.05;;;;;;;-1.25;57.41;100178.66;5050514;28;20445;-65
2024/02/13 11:05:10;;;;;;;34.42;18.70;;;;;;;-1.22;58.06;100183.81;5050246;28;20082;-66
2024/02/13 11:07:36;;;;;;;34.83;17.77;;;;;;;-1.15;57.56;100172.28;5054199;27;20036;-65
2024/02/13 11:10:05;;;;;;;36.58;18.30;;;;;;;-1.11;57.04;100192.31;5049905;28;20033;-67
2024/02/13 11:12:34;;;;;;;33.13;16.25;;;;;;;-1.15;56.27;100188.03;5055431;27;20032;-64
2024/02/13 11:15:16;;;;;;;33.30;17.27;;;;;;;-1.33;57.38;100203.38;5122167;27;20408;-65
2024/02/13 11:17:57;;;;;;;34.35;17.17;;;;;;;-1.49;57.37;100196.75;5085642;27;20039;-64
2024/02/13 11:20:27;;;;;;;35.78;18.75;;;;;;;-1.64;57.98;100200.63;5049739;28;20041;-64
2024/02/13 11:23:15;;;;;;;28.42;15.10;;;;;;;-1.64;57.56;100206.75;5049419;28;20422;-63